Time;durP1;ratioP1;P1;durP2;ratioP2;P2;SDS_P1;SDS_P2;PMS_P1;PMS_P2;Temp;Humidity;BMP_temperature;BMP_pressure;BME280_temperature;BME280_humidity;BME280_pressure;Samples;Min_cycle;Max_cycle;Signal;HPM_P1;HPM_P2
2023/03/08 00:01:15;;;;;;;8.03;4.50;;;3.00;93.60;;;;;;4967275;28;20034;-31
2023/03/08 00:03:41;;;;;;;12.85;5.40;;;2.90;94.20;;;;;;4967405;28;20093;-31
2023/03/08 00:06:10;;;;;;;10.05;5.03;;;2.90;94.40;;;;;;4967783;28;20026;-31
2023/03/08 00:08:36;;;;;;;8.25;4.75;;;2.90;94.70;;;;;;4961583;28;20401;-31
2023/03/08 00:11:10;;;;;;;5.75;3.72;;;2.80;94.30;;;;;;4962873;28;20045;-31
2023/03/08 00:13:36;;;;;;;8.18;4.57;;;2.80;94.80;;;;;;4960175;28;20487;-31
2023/03/08 00:16:03;;;;;;;7.07;4.45;;;2.80;95.60;;;;;;4961472;28;20032;-30
2023/03/08 00:18:29;;;;;;;6.35;3.13;;;2.70;95.80;;;;;;4961448;28;20050;-36
2023/03/08 00:21:04;;;;;;;7.60;4.55;;;2.80;96.00;;;;;;4960530;28;20448;-31
2023/03/08 00:23:30;;;;;;;8.00;4.25;;;2.80;95.70;;;;;;4968899;28;20022;-31
2023/03/08 00:25:56;;;;;;;10.60;5.28;;;2.70;95.80;;;;;;4965205;28;20035;-32
2023/03/08 00:28:22;;;;;;;7.78;4.15;;;2.70;95.80;;;;;;4968085;28;20492;-32
2023/03/08 00:31:14;;;;;;;6.50;4.05;;;2.70;96.10;;;;;;4958628;28;20047;-33
2023/03/08 00:33:40;;;;;;;7.18;4.13;;;2.70;96.50;;;;;;4965492;28;20084;-34
2023/03/08 00:36:07;;;;;;;7.05;4.38;;;2.70;96.50;;;;;;4963839;28;20046;-31
2023/03/08 00:38:35;;;;;;;8.10;4.85;;;2.70;96.80;;;;;;4971160;28;20034;-30
2023/03/08 00:41:01;;;;;;;11.43;4.97;;;2.70;96.80;;;;;;4966703;28;20501;-30
2023/03/08 00:43:27;;;;;;;7.72;3.95;;;2.60;97.50;;;;;;4961035;28;20027;-30
2023/03/08 00:45:53;;;;;;;6.53;4.22;;;2.60;97.80;;;;;;4959854;28;20045;-30
2023/03/08 00:48:19;;;;;;;10.43;5.63;;;2.50;98.20;;;;;;4957445;28;20018;-32
2023/03/08 00:50:45;;;;;;;13.45;5.80;;;2.40;98.50;;;;;;4959997;28;20047;-31
2023/03/08 00:53:11;;;;;;;7.53;4.40;;;2.40;98.90;;;;;;4965224;28;20038;-33
2023/03/08 00:55:36;;;;;;;10.88;5.38;;;2.40;99.10;;;;;;4959859;28;20354;-32
2023/03/08 00:58:02;;;;;;;4.32;3.42;;;2.30;99.40;;;;;;4963893;28;20039;-31
2023/03/08 01:00:29;;;;;;;6.93;4.82;;;2.30;99.50;;;;;;4960557;28;20613;-31
2023/03/08 01:02:55;;;;;;;7.22;4.20;;;2.30;99.60;;;;;;4958732;28;20043;-32
2023/03/08 01:05:21;;;;;;;11.02;4.60;;;2.30;99.50;;;;;;4960883;28;20500;-30
2023/03/08 01:07:46;;;;;;;5.93;3.17;;;2.30;99.20;;;;;;4962564;28;20026;-32
2023/03/08 01:10:12;;;;;;;6.78;3.05;;;2.40;98.80;;;;;;4966692;28;20046;-31
2023/03/08 01:12:38;;;;;;;10.88;5.30;;;2.40;99.70;;;;;;4958467;28;20050;-31
2023/03/08 01:15:04;;;;;;;7.47;4.90;;;2.30;99.90;;;;;;4954609;28;20050;-32
2023/03/08 01:17:30;;;;;;;9.77;4.15;;;2.30;99.90;;;;;;4963377;28;20106;-32
2023/03/08 01:19:56;;;;;;;4.63;2.97;;;2.20;99.90;;;;;;4966601;28;20154;-31
2023/03/08 01:22:22;;;;;;;7.43;5.13;;;2.20;99.90;;;;;;4958277;28;20023;-32
2023/03/08 01:24:48;;;;;;;9.02;4.95;;;2.20;99.90;;;;;;4958291;28;20039;-33
2023/03/08 01:27:15;;;;;;;12.52;5.15;;;2.20;99.90;;;;;;4963085;28;20070;-31
2023/03/08 01:29:41;;;;;;;7.28;4.68;;;2.10;99.90;;;;;;4966169;28;20037;-35
2023/03/08 01:32:08;;;;;;;12.02;5.57;;;2.10;99.90;;;;;;4963985;28;20048;-31
2023/03/08 01:34:38;;;;;;;11.07;5.00;;;2.10;99.90;;;;;;4963356;28;20035;-31
2023/03/08 01:37:04;;;;;;;10.25;4.78;;;2.10;99.90;;;;;;4966919;28;20034;-34
2023/03/08 01:39:30;;;;;;;13.45;4.78;;;2.10;99.90;;;;;;4963210;28;20031;-31
2023/03/08 01:41:56;;;;;;;9.75;5.63;;;2.00;99.90;;;;;;4966002;28;20038;-31
2023/03/08 01:44:22;;;;;;;7.78;4.78;;;2.00;99.90;;;;;;4958862;28;20023;-32
2023/03/08 01:46:48;;;;;;;7.10;4.00;;;2.00;99.90;;;;;;4963064;28;20047;-30
2023/03/08 01:49:24;;;;;;;7.70;4.88;;;2.00;99.90;;;;;;4960336;28;20481;-31
2023/03/08 01:52:10;;;;;;;11.07;6.38;;;2.00;99.90;;;;;;4968149;28;20074;-31
2023/03/08 01:54:42;;;;;;;11.68;6.07;;;2.00;99.90;;;;;;4967571;28;20035;-30
2023/03/08 01:57:14;;;;;;;15.10;8.02;;;1.90;99.90;;;;;;4963896;28;20034;-32
2023/03/08 01:59:40;;;;;;;17.80;7.28;;;1.80;99.90;;;;;;4963554;28;20381;-31
2023/03/08 02:02:06;;;;;;;11.00;6.15;;;1.70;99.90;;;;;;4962939;28;20066;-33
2023/03/08 02:04:32;;;;;;;11.10;6.00;;;1.70;99.90;;;;;;4959500;28;20023;-34
2023/03/08 02:06:58;;;;;;;8.43;5.55;;;1.70;99.90;;;;;;4962545;28;20231;-30
2023/03/08 02:09:24;;;;;;;9.02;5.13;;;1.70;99.90;;;;;;4963601;28;20027;-33
2023/03/08 02:11:50;;;;;;;10.15;5.18;;;1.70;99.90;;;;;;4961893;28;20043;-32
2023/03/08 02:14:15;;;;;;;6.97;4.32;;;1.70;99.90;;;;;;4962921;28;20018;-31
2023/03/08 02:16:41;;;;;;;11.82;6.78;;;1.70;99.90;;;;;;4958078;28;20500;-31
2023/03/08 02:19:19;;;;;;;11.70;5.43;;;1.60;99.90;;;;;;4966861;28;20381;-33
2023/03/08 02:21:45;;;;;;;9.93;6.32;;;1.60;99.90;;;;;;4959673;28;20073;-31
2023/03/08 02:24:24;;;;;;;8.98;4.80;;;1.60;99.90;;;;;;4962107;28;20507;-32
2023/03/08 02:26:55;;;;;;;10.98;4.68;;;1.60;99.90;;;;;;4965914;28;20189;-32
2023/03/08 02:29:21;;;;;;;10.45;5.13;;;1.60;99.90;;;;;;4966352;28;20038;-32
2023/03/08 02:31:46;;;;;;;5.97;3.72;;;1.50;99.90;;;;;;4970402;28;20404;-32
2023/03/08 02:34:12;;;;;;;12.90;4.88;;;1.50;99.90;;;;;;4963301;28;20058;-32
2023/03/08 02:36:37;;;;;;;9.07;4.65;;;1.50;99.90;;;;;;4962612;28;20031;-30
2023/03/08 02:39:03;;;;;;;13.57;4.72;;;1.50;99.90;;;;;;4968371;28;20029;-32
2023/03/08 02:41:28;;;;;;;9.63;4.88;;;1.40;99.90;;;;;;4963647;28;20066;-31
2023/03/08 02:43:54;;;;;;;8.25;4.60;;;1.40;99.90;;;;;;4959178;28;20054;-34
2023/03/08 02:46:20;;;;;;;10.32;5.30;;;1.40;99.90;;;;;;4964903;28;20149;-29
2023/03/08 02:48:45;;;;;;;9.38;4.97;;;1.40;99.90;;;;;;4961779;28;20027;-32
2023/03/08 02:51:11;;;;;;;9.85;5.05;;;1.50;99.90;;;;;;4965925;28;20043;-34
2023/03/08 02:53:37;;;;;;;8.18;4.45;;;1.40;99.90;;;;;;4956760;28;20035;-30
2023/03/08 02:56:03;;;;;;;8.73;5.28;;;1.40;99.90;;;;;;4988838;28;20042;-32
2023/03/08 03:01:50;;;;;;;7.78;4.50;;;1.40;99.90;;;;;;4962524;28;20045;-34
2023/03/08 03:04:16;;;;;;;6.60;4.10;;;1.40;99.90;;;;;;4969837;28;20039;-31
2023/03/08 03:06:41;;;;;;;13.38;4.65;;;1.30;99.90;;;;;;4960282;28;20070;-30
2023/03/08 03:09:08;;;;;;;9.15;5.00;;;1.20;99.90;;;;;;4965472;28;20042;-31
2023/03/08 03:11:33;;;;;;;10.25;4.65;;;1.00;99.90;;;;;;4964198;28;20039;-33
2023/03/08 03:13:59;;;;;;;14.77;4.78;;;1.00;99.90;;;;;;4959338;28;20024;-32
2023/03/08 03:16:26;;;;;;;12.32;5.70;;;1.00;99.90;;;;;;4958565;28;20050;-31
2023/03/08 03:18:54;;;;;;;11.77;4.47;;;1.00;99.90;;;;;;4959988;28;20392;-31
2023/03/08 03:21:20;;;;;;;9.73;5.38;;;1.00;99.90;;;;;;4960727;28;20046;-32
2023/03/08 03:23:46;;;;;;;8.00;5.00;;;1.00;99.90;;;;;;4964262;28;20035;-32
2023/03/08 03:26:18;;;;;;;12.82;5.65;;;1.00;99.90;;;;;;4962069;28;20506;-32
2023/03/08 03:28:44;;;;;;;8.00;4.53;;;0.90;99.90;;;;;;4959119;28;20034;-34
2023/03/08 03:31:13;;;;;;;11.90;4.63;;;0.90;99.90;;;;;;4964193;28;20047;-33
2023/03/08 03:33:39;;;;;;;11.18;5.25;;;0.90;99.90;;;;;;4961737;28;20493;-31
2023/03/08 03:36:05;;;;;;;9.38;4.70;;;0.90;99.90;;;;;;4966027;28;20026;-31
2023/03/08 03:38:31;;;;;;;7.78;5.35;;;0.80;99.90;;;;;;4969381;28;20483;-30
2023/03/08 03:41:06;;;;;;;7.40;4.70;;;0.90;99.90;;;;;;4962619;28;20042;-32
2023/03/08 03:43:32;;;;;;;8.15;4.40;;;0.90;99.90;;;;;;4993627;28;20487;-32
2023/03/08 03:46:00;;;;;;;11.20;4.90;;;1.00;99.90;;;;;;4969588;28;20077;-34
2023/03/08 03:48:26;;;;;;;7.88;5.18;;;0.90;99.90;;;;;;4958817;28;20018;-32
2023/03/08 03:50:58;;;;;;;9.02;4.80;;;1.00;99.90;;;;;;4959958;28;20050;-30
2023/03/08 03:53:26;;;;;;;9.85;4.68;;;0.70;99.90;;;;;;4966460;28;20029;-31
2023/03/08 03:55:52;;;;;;;12.98;5.15;;;0.70;99.90;;;;;;4962266;28;20440;-33
2023/03/08 03:58:17;;;;;;;12.77;5.55;;;0.70;99.90;;;;;;4964681;28;20424;-32
2023/03/08 04:00:43;;;;;;;8.85;4.55;;;0.70;99.90;;;;;;4967684;28;20031;-32
2023/03/08 04:03:09;;;;;;;7.47;4.13;;;0.70;99.90;;;;;;4969355;28;20022;-30
2023/03/08 04:05:34;;;;;;;6.90;4.47;;;0.70;99.90;;;;;;4961590;28;20032;-33
2023/03/08 04:08:00;;;;;;;7.13;4.25;;;0.70;99.90;;;;;;4961718;28;20064;-32
2023/03/08 04:10:26;;;;;;;7.78;4.38;;;0.70;99.90;;;;;;4967969;28;20065;-34
2023/03/08 04:12:52;;;;;;;8.55;4.82;;;0.80;99.90;;;;;;4969320;28;20057;-38
2023/03/08 04:15:18;;;;;;;8.45;4.75;;;0.80;99.90;;;;;;4962356;28;20018;-31
2023/03/08 04:17:44;;;;;;;9.68;4.30;;;0.80;99.90;;;;;;4963044;28;20033;-31
2023/03/08 04:20:10;;;;;;;7.80;4.97;;;0.80;99.90;;;;;;4965480;28;20030;-30
2023/03/08 04:22:36;;;;;;;8.30;4.55;;;0.80;99.90;;;;;;4966861;28;20030;-34
2023/03/08 04:25:02;;;;;;;9.45;5.07;;;0.80;99.90;;;;;;4991728;28;20039;-31
2023/03/08 04:27:28;;;;;;;14.38;6.65;;;0.70;99.90;;;;;;4967642;28;20030;-32
2023/03/08 04:29:53;;;;;;;13.23;6.65;;;0.70;99.90;;;;;;4965691;28;20038;-29
2023/03/08 04:32:19;;;;;;;11.73;5.75;;;0.70;99.90;;;;;;4970135;28;20092;-32
2023/03/08 04:34:44;;;;;;;30.83;13.95;;;0.70;99.90;;;;;;4967321;28;20124;-32
2023/03/08 04:37:10;;;;;;;99.15;39.97;;;0.70;99.90;;;;;;4965034;28;20042;-32
2023/03/08 04:39:36;;;;;;;113.93;45.05;;;0.80;99.90;;;;;;4971850;28;20022;-31
2023/03/08 04:42:02;;;;;;;64.70;27.80;;;0.80;99.90;;;;;;4962478;28;20031;-32
2023/03/08 04:44:27;;;;;;;93.95;35.70;;;0.80;99.90;;;;;;4964599;28;20034;-32
2023/03/08 04:46:53;;;;;;;60.55;26.27;;;0.80;99.90;;;;;;4963168;28;20034;-33
2023/03/08 04:49:19;;;;;;;38.00;19.20;;;0.80;99.90;;;;;;4966778;28;20042;-31
2023/03/08 04:51:45;;;;;;;35.67;15.50;;;0.80;99.90;;;;;;4960813;28;20038;-30
2023/03/08 04:54:10;;;;;;;18.55;11.38;;;0.80;99.90;;;;;;4963896;28;20308;-32
2023/03/08 04:56:36;;;;;;;16.02;9.45;;;0.80;99.90;;;;;;4964471;28;20077;-30
2023/03/08 04:59:01;;;;;;;55.58;19.10;;;0.80;99.90;;;;;;4965342;28;20145;-34
2023/03/08 05:01:27;;;;;;;51.67;21.85;;;0.90;99.90;;;;;;4958849;28;20583;-33
2023/03/08 05:03:53;;;;;;;39.03;15.63;;;0.90;99.90;;;;;;4959739;28;20030;-31
2023/03/08 05:06:21;;;;;;;29.65;12.60;;;0.90;99.90;;;;;;4959866;28;20106;-31
2023/03/08 05:08:47;;;;;;;25.60;12.20;;;0.90;99.90;;;;;;4965007;28;20027;-33
2023/03/08 05:11:38;;;;;;;21.00;9.73;;;1.00;99.90;;;;;;4959539;28;20091;-32
2023/03/08 05:14:04;;;;;;;14.48;6.70;;;1.00;99.90;;;;;;4963210;28;20050;-32
2023/03/08 05:16:29;;;;;;;11.18;7.90;;;1.00;99.90;;;;;;4969623;28;20031;-33
2023/03/08 05:18:55;;;;;;;11.05;7.00;;;1.10;99.90;;;;;;4963943;28;20035;-35
2023/03/08 05:21:22;;;;;;;16.13;7.20;;;1.10;99.90;;;;;;4969307;28;20034;-30
2023/03/08 05:23:48;;;;;;;12.70;6.13;;;1.10;99.90;;;;;;4960358;28;20034;-31
2023/03/08 05:26:15;;;;;;;14.13;7.13;;;1.10;99.90;;;;;;4958413;28;20500;-30
2023/03/08 05:28:41;;;;;;;9.43;5.93;;;1.20;99.90;;;;;;4963705;28;20050;-33
2023/03/08 05:31:15;;;;;;;7.22;4.78;;;1.20;99.90;;;;;;4961708;28;20047;-33
2023/03/08 05:33:45;;;;;;;11.75;5.95;;;1.10;99.90;;;;;;4962520;28;20027;-33
2023/03/08 05:36:11;;;;;;;11.30;5.55;;;1.00;99.90;;;;;;4962854;28;20487;-29
2023/03/08 05:38:37;;;;;;;13.75;6.97;;;1.00;99.90;;;;;;4966894;28;20095;-31
2023/03/08 05:41:06;;;;;;;12.05;5.80;;;1.00;99.90;;;;;;4969381;28;20062;-32
2023/03/08 05:43:32;;;;;;;12.57;5.70;;;1.00;99.90;;;;;;4983118;28;20057;-32
2023/03/08 05:46:03;;;;;;;14.32;7.03;;;1.10;99.90;;;;;;4960167;28;20106;-31
2023/03/08 05:48:30;;;;;;;10.30;6.55;;;1.10;99.90;;;;;;4995542;28;20507;-32
2023/03/08 05:50:57;;;;;;;9.70;5.90;;;1.10;99.90;;;;;;4962574;28;20295;-34
2023/03/08 05:53:23;;;;;;;19.45;7.70;;;1.10;99.90;;;;;;4960734;28;20085;-30
2023/03/08 05:55:48;;;;;;;10.75;6.30;;;1.10;99.90;;;;;;4965579;28;20022;-31
2023/03/08 05:58:14;;;;;;;13.65;6.38;;;1.20;99.90;;;;;;4957245;28;20023;-32
2023/03/08 06:00:40;;;;;;;11.75;6.47;;;1.20;99.90;;;;;;4962409;28;20047;-32
2023/03/08 06:03:06;;;;;;;13.77;6.60;;;1.10;99.90;;;;;;4972184;28;20035;-34
2023/03/08 06:05:32;;;;;;;14.55;6.97;;;1.10;99.90;;;;;;4959164;28;20502;-32
2023/03/08 06:07:59;;;;;;;13.35;6.82;;;1.10;99.90;;;;;;4967083;28;20058;-31
2023/03/08 06:10:25;;;;;;;14.75;7.03;;;1.10;99.90;;;;;;4963133;28;20077;-29
2023/03/08 06:12:50;;;;;;;11.65;6.35;;;1.20;99.90;;;;;;4967871;28;20054;-32
2023/03/08 06:15:16;;;;;;;17.13;7.95;;;1.20;99.90;;;;;;4966379;28;20102;-30
2023/03/08 06:17:42;;;;;;;12.00;7.38;;;1.30;99.90;;;;;;4964727;28;20049;-30
2023/03/08 06:20:09;;;;;;;12.88;7.70;;;1.40;99.90;;;;;;4966993;28;20059;-32
2023/03/08 06:22:34;;;;;;;20.30;8.50;;;1.50;99.90;;;;;;4967023;28;20363;-32
2023/03/08 06:25:01;;;;;;;19.17;8.85;;;1.50;99.90;;;;;;4994777;28;20480;-32
2023/03/08 06:27:27;;;;;;;12.65;7.60;;;1.60;99.90;;;;;;4965222;28;20783;-33
2023/03/08 06:29:52;;;;;;;13.73;8.43;;;1.60;99.90;;;;;;4969247;28;20035;-31
2023/03/08 06:32:18;;;;;;;15.07;7.82;;;1.60;99.90;;;;;;4968639;28;20047;-34
2023/03/08 06:34:45;;;;;;;12.82;6.78;;;1.70;99.90;;;;;;4970645;28;20559;-33
2023/03/08 06:37:11;;;;;;;10.57;6.57;;;1.70;99.90;;;;;;4958756;28;20047;-32
2023/03/08 06:39:37;;;;;;;13.57;6.60;;;1.80;99.90;;;;;;4977952;28;20029;-32
2023/03/08 06:42:03;;;;;;;11.55;5.75;;;1.80;99.90;;;;;;4963997;28;20441;-34
2023/03/08 06:44:29;;;;;;;7.75;4.32;;;1.80;99.90;;;;;;4967494;28;20033;-33
2023/03/08 06:46:55;;;;;;;12.90;7.22;;;1.80;99.90;;;;;;4958000;28;20027;-32
2023/03/08 06:49:21;;;;;;;14.98;7.43;;;1.80;99.90;;;;;;4964358;28;20729;-32
2023/03/08 06:51:47;;;;;;;11.07;6.63;;;1.90;99.90;;;;;;4961837;28;20051;-32
2023/03/08 06:54:16;;;;;;;15.15;7.72;;;1.90;99.90;;;;;;4962188;28;20032;-32
2023/03/08 06:56:45;;;;;;;;;;;2.00;99.90;;;;;;4968237;28;20065;-31
2023/03/08 06:59:11;;;;;;;12.90;6.18;;;2.00;99.90;;;;;;4969299;28;20389;-33
2023/03/08 07:01:37;;;;;;;14.77;6.72;;;2.10;99.90;;;;;;4969420;28;20126;-34
2023/03/08 07:04:03;;;;;;;15.07;7.00;;;2.10;99.90;;;;;;4972491;28;20070;-31
2023/03/08 07:06:29;;;;;;;13.68;6.85;;;2.10;99.90;;;;;;4971462;28;20089;-34
2023/03/08 07:08:54;;;;;;;12.10;7.10;;;2.20;99.90;;;;;;4973142;28;20169;-34
2023/03/08 07:11:20;;;;;;;13.48;6.75;;;2.30;99.90;;;;;;4962822;28;20054;-31
2023/03/08 07:13:45;;;;;;;18.95;7.85;;;2.30;99.90;;;;;;4963583;28;20388;-32
2023/03/08 07:16:12;;;;;;;15.15;7.97;;;2.30;99.90;;;;;;4960150;28;20050;-32
2023/03/08 07:18:38;;;;;;;14.43;7.75;;;2.20;99.90;;;;;;4967813;28;20031;-34
2023/03/08 07:21:04;;;;;;;15.68;7.60;;;2.30;99.90;;;;;;4968970;28;20034;-31
2023/03/08 07:23:30;;;;;;;13.88;7.63;;;2.30;99.90;;;;;;4968529;28;20137;-35
2023/03/08 07:25:55;;;;;;;16.92;8.25;;;2.40;99.90;;;;;;4958948;28;20122;-33
2023/03/08 07:28:21;;;;;;;18.17;8.77;;;2.40;99.90;;;;;;4965194;28;20026;-32
2023/03/08 07:30:49;;;;;;;12.98;7.38;;;2.40;99.90;;;;;;4964615;28;20066;-31
2023/03/08 07:33:15;;;;;;;16.67;7.93;;;2.50;99.90;;;;;;4966873;28;20035;-34
2023/03/08 07:35:41;;;;;;;16.58;8.02;;;2.60;99.90;;;;;;4964087;28;20035;-31
2023/03/08 07:38:06;;;;;;;13.90;7.28;;;2.70;99.90;;;;;;4961063;28;20401;-31
2023/03/08 07:40:32;;;;;;;18.63;8.50;;;2.70;99.90;;;;;;4960564;28;20077;-30
2023/03/08 07:42:59;;;;;;;13.50;7.13;;;2.80;99.90;;;;;;4963148;28;20019;-33
2023/03/08 07:45:24;;;;;;;10.82;5.95;;;2.90;99.90;;;;;;4966109;28;20477;-32
2023/03/08 07:47:53;;;;;;;11.95;7.53;;;3.10;99.90;;;;;;4962627;28;20077;-32
2023/03/08 07:50:20;;;;;;;21.13;6.65;;;3.30;99.90;;;;;;4963478;28;22563;-33
2023/03/08 07:52:46;;;;;;;13.07;7.65;;;3.50;99.90;;;;;;4971158;28;20401;-32
2023/03/08 07:55:12;;;;;;;12.98;6.85;;;3.60;99.90;;;;;;4967160;28;20029;-30
2023/03/08 07:57:38;;;;;;;15.32;7.00;;;3.70;99.90;;;;;;4961894;28;20039;-34
2023/03/08 08:00:08;;;;;;;12.13;6.38;;;3.80;99.90;;;;;;4964865;28;20018;-34
2023/03/08 08:02:34;;;;;;;14.48;7.47;;;4.00;99.90;;;;;;4968491;28;20094;-33
2023/03/08 08:05:01;;;;;;;12.52;6.22;;;4.00;99.90;;;;;;4971088;28;20030;-31
2023/03/08 08:07:27;;;;;;;15.00;8.23;;;4.10;99.90;;;;;;4996384;28;20397;-32
2023/03/08 08:09:53;;;;;;;14.63;7.13;;;4.10;99.90;;;;;;4972919;28;20039;-32
2023/03/08 08:12:19;;;;;;;13.55;5.93;;;4.20;99.90;;;;;;4967902;28;20030;-31
2023/03/08 08:14:44;;;;;;;17.92;8.45;;;4.20;99.90;;;;;;4966736;28;20042;-32
2023/03/08 08:17:10;;;;;;;20.27;8.75;;;4.20;99.90;;;;;;4968819;28;20046;-31
2023/03/08 08:19:37;;;;;;;16.42;8.40;;;4.20;99.90;;;;;;4962838;28;20018;-34
2023/03/08 08:22:03;;;;;;;17.02;9.07;;;4.30;99.90;;;;;;4968728;28;20022;-31
2023/03/08 08:24:31;;;;;;;10.82;6.63;;;4.30;99.90;;;;;;4959106;28;20508;-32
2023/03/08 08:26:57;;;;;;;12.35;7.30;;;4.30;99.90;;;;;;4959880;28;20555;-31
2023/03/08 08:29:23;;;;;;;17.63;8.43;;;4.30;99.90;;;;;;4958646;28;20035;-35
2023/03/08 08:31:51;;;;;;;21.35;9.60;;;4.30;99.90;;;;;;4985289;28;20075;-30
2023/03/08 08:34:18;;;;;;;15.43;9.05;;;4.30;99.90;;;;;;4965634;28;20039;-32
2023/03/08 08:36:44;;;;;;;16.42;9.00;;;4.40;99.90;;;;;;4965262;28;20579;-31
2023/03/08 08:39:09;;;;;;;19.05;7.85;;;4.40;99.90;;;;;;4966480;28;20038;-33
2023/03/08 08:41:35;;;;;;;19.10;9.45;;;4.50;99.90;;;;;;4962392;28;20035;-32
2023/03/08 08:44:01;;;;;;;15.85;8.02;;;4.50;99.90;;;;;;4963840;28;20035;-31
2023/03/08 08:46:27;;;;;;;20.48;8.65;;;4.50;99.90;;;;;;4967982;28;20031;-30
2023/03/08 08:48:54;;;;;;;18.02;9.43;;;4.60;99.90;;;;;;4965004;28;20515;-32
2023/03/08 08:51:20;;;;;;;14.90;7.50;;;4.70;99.90;;;;;;4962063;28;20089;-33
2023/03/08 08:53:46;;;;;;;15.00;8.10;;;4.70;99.90;;;;;;4969059;28;20019;-34
2023/03/08 08:56:17;;;;;;;15.65;9.43;;;4.70;99.90;;;;;;4962185;28;20047;-35
2023/03/08 08:58:43;;;;;;;11.32;6.95;;;4.80;99.90;;;;;;4971976;28;20361;-33
2023/03/08 09:01:14;;;;;;;15.30;8.30;;;4.80;99.90;;;;;;4965037;28;20081;-33
2023/03/08 09:03:40;;;;;;;12.98;7.93;;;4.80;99.90;;;;;;4965452;28;20508;-31
2023/03/08 09:06:06;;;;;;;18.38;8.52;;;4.90;99.90;;;;;;4959855;28;20031;-31
2023/03/08 09:08:31;;;;;;;18.45;9.93;;;4.90;99.90;;;;;;4967758;28;20073;-34
2023/03/08 09:11:03;;;;;;;14.05;8.35;;;5.00;99.90;;;;;;4960884;28;20035;-34
2023/03/08 09:13:29;;;;;;;16.95;9.23;;;5.00;99.90;;;;;;4974668;28;20121;-35
2023/03/08 09:15:54;;;;;;;21.00;9.95;;;5.00;99.90;;;;;;4969013;28;20023;-30
2023/03/08 09:18:20;;;;;;;17.45;8.75;;;5.00;99.90;;;;;;4965887;28;20385;-31
2023/03/08 09:20:46;;;;;;;13.13;7.20;;;5.00;99.90;;;;;;4971367;28;20105;-36
2023/03/08 09:23:11;;;;;;;16.38;8.40;;;5.10;99.90;;;;;;4970571;28;20038;-32
2023/03/08 09:25:37;;;;;;;16.38;8.85;;;5.10;99.90;;;;;;4968751;28;20607;-32
2023/03/08 09:28:03;;;;;;;15.57;8.25;;;5.20;99.90;;;;;;4968023;28;20453;-31
2023/03/08 09:30:29;;;;;;;19.58;8.85;;;5.20;99.90;;;;;;4966621;28;20035;-31
2023/03/08 09:32:55;;;;;;;13.80;8.15;;;5.10;99.90;;;;;;4965702;28;20488;-34
2023/03/08 09:35:20;;;;;;;17.13;9.07;;;5.10;99.90;;;;;;4959188;28;20016;-29
2023/03/08 09:37:46;;;;;;;9.30;5.63;;;5.10;99.90;;;;;;4965703;28;20023;-32
2023/03/08 09:40:19;;;;;;;18.10;9.60;;;5.10;99.90;;;;;;4965774;28;20405;-34
2023/03/08 09:42:45;;;;;;;12.73;7.75;;;5.10;99.90;;;;;;4962896;28;20136;-31
2023/03/08 09:45:27;;;;;;;16.23;8.98;;;5.00;99.90;;;;;;4957050;28;20110;-33
2023/03/08 09:48:09;;;;;;;17.40;8.80;;;5.00;99.90;;;;;;4962575;28;20417;-32
2023/03/08 09:51:07;;;;;;;19.98;9.57;;;5.00;99.90;;;;;;4969402;28;20107;-33
2023/03/08 09:53:49;;;;;;;15.93;8.90;;;5.10;99.90;;;;;;4980306;28;20038;-30
2023/03/08 09:56:35;;;;;;;25.60;11.52;;;5.10;99.90;;;;;;4966317;28;20038;-34
2023/03/08 09:59:18;;;;;;;16.35;8.77;;;5.10;99.90;;;;;;4968053;28;20037;-33
2023/03/08 10:01:46;;;;;;;15.07;8.38;;;5.10;99.90;;;;;;4965494;28;20039;-32
2023/03/08 10:04:12;;;;;;;;;;;5.10;99.90;;;;;;4975032;28;20031;-33
2023/03/08 10:07:01;;;;;;;19.27;8.77;;;5.10;99.90;;;;;;4967632;28;19917;-33
2023/03/08 10:09:34;;;;;;;14.57;9.00;;;5.00;99.90;;;;;;4971702;28;20039;-34
2023/03/08 10:12:19;;;;;;;15.68;8.90;;;5.00;99.90;;;;;;4968247;28;20476;-31
2023/03/08 10:14:53;;;;;;;18.13;8.70;;;4.90;99.90;;;;;;4963920;28;20101;-35
2023/03/08 10:17:22;;;;;;;24.77;9.82;;;4.90;99.90;;;;;;4966294;28;20030;-34
2023/03/08 10:20:05;;;;;;;22.30;11.98;;;4.90;99.90;;;;;;4971614;28;20023;-32
2023/03/08 10:22:35;;;;;;;20.27;9.18;;;4.90;99.90;;;;;;4966400;28;20035;-34
2023/03/08 10:25:17;;;;;;;14.43;8.00;;;4.90;99.90;;;;;;4972839;28;20121;-32
2023/03/08 10:27:46;;;;;;;8.93;4.82;;;4.90;99.90;;;;;;4985350;28;20474;-32
2023/03/08 10:30:18;;;;;;;17.17;7.82;;;5.00;99.90;;;;;;4971286;28;20081;-32
2023/03/08 10:32:47;;;;;;;13.30;7.75;;;5.00;99.90;;;;;;4966363;28;20038;-33
2023/03/08 10:35:15;;;;;;;8.30;4.90;;;5.00;99.90;;;;;;4970535;28;20393;-31
2023/03/08 10:37:40;;;;;;;17.87;9.27;;;5.10;99.90;;;;;;4973987;28;20025;-31
2023/03/08 10:40:10;;;;;;;17.52;9.23;;;5.10;99.90;;;;;;4971710;28;20373;-30
2023/03/08 10:42:36;;;;;;;14.63;7.68;;;5.20;99.90;;;;;;4962314;28;20439;-31
2023/03/08 10:45:14;;;;;;;18.42;10.07;;;5.20;99.90;;;;;;4972196;28;20037;-31
2023/03/08 10:47:40;;;;;;;12.02;7.25;;;5.20;99.90;;;;;;4970169;28;20029;-32
2023/03/08 10:50:11;;;;;;;15.35;7.15;;;5.30;99.90;;;;;;4964524;28;20035;-33
2023/03/08 10:52:37;;;;;;;14.02;7.90;;;5.30;99.90;;;;;;4971472;28;20074;-32
2023/03/08 10:55:05;;;;;;;12.30;7.43;;;5.40;99.90;;;;;;4985870;28;20031;-34
2023/03/08 10:57:32;;;;;;;16.85;7.65;;;5.50;99.90;;;;;;4964506;28;20023;-32
2023/03/08 11:00:08;;;;;;;12.70;7.70;;;5.60;99.90;;;;;;4962598;28;20508;-34
2023/03/08 11:02:33;;;;;;;11.63;7.53;;;5.70;99.90;;;;;;4968512;28;20050;-32
2023/03/08 11:04:59;;;;;;;7.07;5.07;;;5.80;99.90;;;;;;4966659;28;20055;-31
2023/03/08 11:07:31;;;;;;;12.63;7.78;;;5.90;99.90;;;;;;4966938;28;20425;-31
2023/03/08 11:10:27;;;;;;;10.95;6.93;;;5.90;99.90;;;;;;4967154;28;20039;-33
2023/03/08 11:13:16;;;;;;;13.13;8.30;;;6.00;99.90;;;;;;4963709;28;20051;-31
2023/03/08 11:15:49;;;;;;;9.57;5.63;;;6.10;99.90;;;;;;4974818;28;20362;-33
2023/03/08 11:18:23;;;;;;;16.25;7.55;;;6.20;99.90;;;;;;4962971;28;20027;-30
2023/03/08 11:20:59;;;;;;;11.55;6.65;;;6.20;99.90;;;;;;4979972;28;20023;-31
2023/03/08 11:23:37;;;;;;;14.13;7.03;;;6.30;99.90;;;;;;4967841;28;20037;-32
2023/03/08 11:26:12;;;;;;;14.45;7.57;;;6.40;99.90;;;;;;4963909;28;20035;-32
2023/03/08 11:29:00;;;;;;;13.88;7.03;;;6.40;99.90;;;;;;4960099;28;20027;-29
2023/03/08 11:31:55;;;;;;;15.13;7.13;;;6.40;99.90;;;;;;4964825;28;20046;-32
2023/03/08 11:34:59;;;;;;;14.02;8.13;;;6.50;99.90;;;;;;4966070;28;20051;-31
2023/03/08 11:37:51;;;;;;;11.95;6.50;;;6.60;99.90;;;;;;4965669;28;20988;-29
2023/03/08 11:40:37;;;;;;;14.02;8.32;;;6.70;99.90;;;;;;4971740;28;20062;-31
2023/03/08 11:44:01;;;;;;;14.80;7.47;;;6.80;99.90;;;;;;4964871;28;20037;-30
2023/03/08 11:46:44;;;;;;;12.00;7.13;;;6.90;99.90;;;;;;4999513;28;20107;-31
2023/03/08 11:49:13;;;;;;;11.40;7.28;;;7.00;99.90;;;;;;4962916;28;20046;-32
2023/03/08 11:52:06;;;;;;;9.57;5.00;;;7.20;99.90;;;;;;4964927;28;20122;-33
2023/03/08 11:54:59;;;;;;;6.47;4.32;;;7.40;99.90;;;;;;4971879;28;20037;-31
2023/03/08 11:57:33;;;;;;;10.60;6.50;;;7.60;99.90;;;;;;4965559;28;20031;-31
2023/03/08 12:00:12;;;;;;;8.32;5.47;;;7.70;99.90;;;;;;4966642;28;20031;-32
2023/03/08 12:02:43;;;;;;;7.72;4.68;;;7.80;99.90;;;;;;4963674;28;21803;-33
2023/03/08 12:05:34;;;;;;;5.38;3.72;;;7.90;99.90;;;;;;4960524;28;20466;-29
2023/03/08 12:08:14;;;;;;;4.80;3.50;;;8.00;99.90;;;;;;4964812;28;20493;-33
2023/03/08 12:10:39;;;;;;;7.90;4.45;;;8.10;99.90;;;;;;4960936;28;20027;-29
2023/03/08 12:13:24;;;;;;;5.50;3.45;;;8.30;99.90;;;;;;4965471;28;20037;-33
2023/03/08 12:16:17;;;;;;;2.78;2.20;;;8.40;99.90;;;;;;4970660;28;20635;-33
2023/03/08 12:19:06;;;;;;;6.70;3.17;;;8.60;99.90;;;;;;4961028;28;20381;-31
2023/03/08 12:21:46;;;;;;;3.97;3.03;;;8.70;99.90;;;;;;4967317;28;20035;-31
2023/03/08 12:24:25;;;;;;;4.03;2.05;;;8.80;99.90;;;;;;4969248;28;20069;-32
2023/03/08 12:27:02;;;;;;;3.88;2.28;;;8.90;99.90;;;;;;4963239;28;20039;-34
2023/03/08 12:29:44;;;;;;;2.92;2.17;;;9.00;99.90;;;;;;4962115;28;20034;-35
2023/03/08 12:32:13;;;;;;;3.35;2.92;;;9.10;99.90;;;;;;4964180;28;20042;-32
2023/03/08 12:34:41;;;;;;;5.18;3.47;;;9.10;99.90;;;;;;4963691;28;20042;-33
2023/03/08 12:37:36;;;;;;;3.30;2.20;;;9.20;99.90;;;;;;4961216;28;20118;-31
2023/03/08 12:40:25;;;;;;;4.88;3.22;;;9.30;99.90;;;;;;4968778;28;20039;-32
2023/03/08 12:43:02;;;;;;;3.13;2.60;;;9.40;99.90;;;;;;4963442;28;20031;-32
2023/03/08 12:45:29;;;;;;;3.65;2.60;;;9.40;99.90;;;;;;4966910;28;20026;-32
2023/03/08 12:47:57;;;;;;;9.93;3.25;;;9.50;99.90;;;;;;4960941;28;20046;-32
2023/03/08 12:50:23;;;;;;;3.40;2.58;;;9.40;99.90;;;;;;4960605;28;20137;-34
2023/03/08 12:52:49;;;;;;;2.60;2.25;;;9.40;99.90;;;;;;4971411;28;20473;-32
2023/03/08 12:55:32;;;;;;;4.20;2.67;;;9.50;99.90;;;;;;4963559;28;20065;-33
2023/03/08 12:58:01;;;;;;;4.28;3.10;;;9.50;99.90;;;;;;4967213;28;20062;-33
2023/03/08 13:00:34;;;;;;;4.18;2.72;;;9.50;99.90;;;;;;4967055;28;20105;-30
2023/03/08 13:03:03;;;;;;;3.17;2.50;;;9.50;99.90;;;;;;4966070;28;20213;-32
2023/03/08 13:05:37;;;;;;;4.63;2.97;;;9.50;99.90;;;;;;4967874;28;20022;-32